Time;durP1;ratioP1;P1;durP2;ratioP2;P2;SDS_P1;SDS_P2;PMS_P1;PMS_P2;Temp;Humidity;BMP_temperature;BMP_pressure;BME280_temperature;BME280_humidity;BME280_pressure;Samples;Min_cycle;Max_cycle;Signal;HPM_P1;HPM_P2
2023/08/20 00:00:14;;;;;;;6.18;2.10;;;15.90;99.90;;;;;;5101889;28;20028;-68
2023/08/20 00:02:43;;;;;;;6.00;2.03;;;15.80;99.90;;;;;;5102869;28;20401;-68
2023/08/20 00:05:09;;;;;;;8.18;2.38;;;15.80;99.90;;;;;;5090231;28;20089;-68
2023/08/20 00:07:35;;;;;;;8.32;2.85;;;15.80;99.90;;;;;;5103901;28;20054;-68
2023/08/20 00:10:04;;;;;;;9.68;3.33;;;15.70;99.90;;;;;;5087912;28;20551;-68
2023/08/20 00:12:30;;;;;;;8.02;2.70;;;15.70;99.90;;;;;;5104044;28;20040;-68
2023/08/20 00:14:58;;;;;;;7.95;2.80;;;15.70;99.90;;;;;;5105926;28;20606;-68
2023/08/20 00:17:26;;;;;;;10.38;3.65;;;15.60;99.90;;;;;;5102069;28;20051;-68
2023/08/20 00:19:55;;;;;;;7.80;2.75;;;15.60;99.90;;;;;;5101400;28;20386;-68
2023/08/20 00:22:22;;;;;;;5.20;2.38;;;15.70;99.90;;;;;;5085715;28;20131;-68
2023/08/20 00:24:48;;;;;;;6.80;2.10;;;15.60;99.90;;;;;;5085346;28;20466;-68
2023/08/20 00:27:14;;;;;;;6.97;2.63;;;15.60;99.90;;;;;;5104293;28;20100;-68
2023/08/20 00:29:40;;;;;;;8.65;2.88;;;15.60;99.90;;;;;;5106072;28;20613;-68
2023/08/20 00:32:05;;;;;;;6.15;1.63;;;15.60;99.90;;;;;;5102087;28;20031;-68
2023/08/20 00:34:31;;;;;;;3.72;1.05;;;15.50;99.90;;;;;;5084467;28;20036;-68
2023/08/20 00:36:56;;;;;;;6.38;1.20;;;15.50;99.90;;;;;;5083575;28;20035;-68
2023/08/20 00:39:22;;;;;;;7.05;2.33;;;15.50;99.90;;;;;;5085305;28;20169;-68
2023/08/20 00:41:47;;;;;;;4.85;2.10;;;15.70;99.90;;;;;;5118408;28;20436;-68
2023/08/20 00:44:13;;;;;;;9.85;2.90;;;15.40;99.90;;;;;;5104234;28;20040;-68
2023/08/20 00:46:39;;;;;;;4.95;2.40;;;15.40;99.90;;;;;;5090073;28;20043;-68
2023/08/20 00:49:05;;;;;;;2.78;2.20;;;15.30;99.90;;;;;;5102278;28;20027;-68
2023/08/20 00:51:33;;;;;;;6.45;3.10;;;15.30;99.90;;;;;;5101712;28;20448;-68
2023/08/20 00:54:00;;;;;;;4.80;3.33;;;15.30;99.90;;;;;;5085069;28;20066;-68
2023/08/20 00:56:26;;;;;;;60.28;4.75;;;15.30;99.90;;;;;;5103342;28;20036;-68
2023/08/20 00:58:54;;;;;;;4.00;2.13;;;15.40;99.90;;;;;;5100959;28;20044;-68
2023/08/20 01:01:20;;;;;;;3.95;1.70;;;15.30;99.90;;;;;;5102522;28;20043;-68
2023/08/20 01:03:46;;;;;;;3.92;2.22;;;15.40;99.90;;;;;;5103007;28;20085;-68
2023/08/20 01:06:33;;;;;;;8.93;2.33;;;15.30;99.90;;;;;;5085664;28;20036;-68
2023/08/20 01:09:11;;;;;;;5.78;2.33;;;15.20;99.90;;;;;;5118869;28;20066;-68
2023/08/20 01:11:45;;;;;;;3.67;1.80;;;15.10;99.90;;;;;;5105536;28;20424;-67
2023/08/20 01:14:17;;;;;;;4.00;1.75;;;15.10;99.90;;;;;;5100757;28;20048;-68
2023/08/20 01:16:44;;;;;;;5.18;2.03;;;15.10;99.90;;;;;;5101928;28;21300;-68
2023/08/20 01:19:16;;;;;;;4.88;2.40;;;15.10;99.90;;;;;;5089410;28;20054;-68
2023/08/20 01:22:15;;;;;;;5.60;2.47;;;15.00;99.90;;;;;;5101918;28;20434;-68
2023/08/20 01:25:01;;;;;;;6.40;3.60;;;15.00;99.90;;;;;;5095558;27;20047;-68
2023/08/20 01:27:48;;;;;;;6.97;2.35;;;15.00;99.90;;;;;;5087239;28;20051;-68
2023/08/20 01:30:15;;;;;;;6.93;2.95;;;15.00;99.90;;;;;;5104594;28;20116;-68
2023/08/20 01:32:41;;;;;;;4.90;3.25;;;14.90;99.90;;;;;;5107721;28;20097;-68
2023/08/20 01:35:13;;;;;;;7.18;3.10;;;14.90;99.90;;;;;;5085341;28;20049;-68
2023/08/20 01:37:39;;;;;;;4.72;2.80;;;14.90;99.90;;;;;;5118969;27;20088;-68
2023/08/20 01:40:07;;;;;;;4.00;2.50;;;14.90;99.90;;;;;;5087753;28;20035;-68
2023/08/20 01:42:33;;;;;;;3.30;1.65;;;14.90;99.90;;;;;;5108120;28;20044;-68
2023/08/20 01:44:58;;;;;;;7.57;2.33;;;14.90;99.90;;;;;;5106815;28;20039;-68
2023/08/20 01:47:24;;;;;;;3.42;2.30;;;14.90;99.90;;;;;;5104929;28;20084;-68
2023/08/20 01:49:49;;;;;;;5.25;2.90;;;14.90;99.90;;;;;;5108201;28;20046;-68
2023/08/20 01:52:15;;;;;;;7.50;3.00;;;15.20;99.90;;;;;;5086614;28;21566;-68
2023/08/20 01:54:40;;;;;;;5.43;2.90;;;14.90;99.90;;;;;;5088515;28;20123;-68
2023/08/20 01:57:06;;;;;;;4.65;2.58;;;14.90;99.90;;;;;;5086944;28;20040;-68
2023/08/20 01:59:32;;;;;;;5.75;2.97;;;14.90;99.90;;;;;;5108203;28;20031;-68
2023/08/20 02:01:57;;;;;;;5.53;3.35;;;14.90;99.90;;;;;;5088237;28;20088;-68
2023/08/20 02:04:23;;;;;;;7.85;4.90;;;15.00;99.90;;;;;;5106754;28;20023;-68
2023/08/20 02:06:48;;;;;;;4.85;3.45;;;14.90;99.90;;;;;;5086044;28;20085;-68
2023/08/20 02:09:14;;;;;;;8.52;3.88;;;14.90;99.90;;;;;;5107669;28;20043;-68
2023/08/20 02:11:39;;;;;;;7.68;3.97;;;14.90;99.90;;;;;;5108430;28;20043;-68
2023/08/20 02:14:05;;;;;;;6.82;3.35;;;15.00;99.90;;;;;;5120787;27;20043;-68
2023/08/20 02:16:30;;;;;;;10.32;3.80;;;14.90;99.90;;;;;;5108840;28;20067;-68
2023/08/20 02:18:56;;;;;;;6.60;3.30;;;14.90;99.90;;;;;;5089603;28;20059;-68
2023/08/20 02:21:22;;;;;;;10.90;4.30;;;14.90;99.90;;;;;;5087490;28;20521;-68
2023/08/20 02:23:47;;;;;;;6.03;4.60;;;14.80;99.90;;;;;;5104508;28;20462;-68
2023/08/20 02:26:14;;;;;;;5.38;3.70;;;14.90;99.90;;;;;;5087636;28;20097;-68
2023/08/20 02:28:40;;;;;;;10.30;5.20;;;14.80;99.90;;;;;;5105528;28;20040;-68
2023/08/20 02:31:06;;;;;;;8.07;5.07;;;14.90;99.90;;;;;;5105432;28;20043;-68
2023/08/20 02:33:31;;;;;;;10.25;5.35;;;14.80;99.90;;;;;;5108239;28;20035;-68
2023/08/20 02:36:03;;;;;;;5.85;5.35;;;14.90;99.90;;;;;;5105697;28;20469;-68
2023/08/20 02:38:30;;;;;;;9.02;5.50;;;14.90;99.90;;;;;;5121358;27;20050;-68
2023/08/20 02:40:56;;;;;;;8.13;5.50;;;14.90;99.90;;;;;;5105830;28;20428;-68
2023/08/20 02:43:21;;;;;;;5.00;4.50;;;14.90;99.90;;;;;;5104200;28;20473;-68
2023/08/20 02:45:47;;;;;;;8.00;4.32;;;14.90;99.90;;;;;;5105048;28;20028;-68
2023/08/20 02:48:14;;;;;;;4.70;3.75;;;14.90;99.90;;;;;;5121221;27;20580;-68
2023/08/20 02:50:39;;;;;;;6.65;3.70;;;14.90;99.90;;;;;;5086531;28;20108;-69
2023/08/20 02:53:05;;;;;;;7.20;4.10;;;14.90;99.90;;;;;;5087330;28;20039;-68
2023/08/20 02:55:32;;;;;;;10.02;5.28;;;14.90;99.90;;;;;;5105030;28;20066;-68
2023/08/20 02:57:58;;;;;;;12.15;6.50;;;14.80;99.90;;;;;;5086684;28;20061;-68
2023/08/20 03:00:23;;;;;;;7.25;5.15;;;14.80;99.90;;;;;;5089280;28;20043;-68
2023/08/20 03:02:49;;;;;;;6.10;4.97;;;14.80;99.90;;;;;;5106905;28;20131;-68
2023/08/20 03:05:14;;;;;;;8.45;5.28;;;14.80;99.90;;;;;;5072254;28;20046;-68
2023/08/20 03:07:40;;;;;;;6.95;5.10;;;14.70;99.90;;;;;;5108904;28;20804;-68
2023/08/20 03:10:06;;;;;;;8.88;4.32;;;14.70;99.90;;;;;;5085611;28;20047;-68
2023/08/20 03:12:32;;;;;;;8.02;5.20;;;14.70;99.90;;;;;;5105416;28;20046;-68
2023/08/20 03:14:59;;;;;;;9.15;5.70;;;14.70;99.90;;;;;;5087194;28;20040;-68
2023/08/20 03:17:24;;;;;;;7.80;5.97;;;14.80;99.90;;;;;;5104622;28;20070;-68
2023/08/20 03:19:58;;;;;;;8.05;5.55;;;14.80;99.90;;;;;;5102767;28;20039;-68
2023/08/20 03:22:25;;;;;;;11.25;5.28;;;14.80;99.90;;;;;;5086875;28;20075;-68
2023/08/20 03:24:51;;;;;;;11.15;6.15;;;14.80;99.90;;;;;;5104547;28;20155;-68
2023/08/20 03:27:18;;;;;;;7.57;5.10;;;14.70;99.90;;;;;;5103859;28;20074;-68
2023/08/20 03:29:44;;;;;;;8.40;4.50;;;14.70;99.90;;;;;;5101789;28;20126;-68
2023/08/20 03:32:09;;;;;;;6.07;4.25;;;14.70;99.90;;;;;;5085553;28;20039;-68
2023/08/20 03:34:35;;;;;;;6.07;4.60;;;14.70;99.90;;;;;;5091543;28;20039;-67
2023/08/20 03:37:02;;;;;;;8.40;4.05;;;14.70;99.90;;;;;;5081170;28;20081;-68
2023/08/20 03:39:27;;;;;;;3.78;2.90;;;14.70;99.90;;;;;;5082673;28;20044;-68
2023/08/20 03:41:53;;;;;;;7.10;3.72;;;14.60;99.90;;;;;;5102506;28;20034;-68
2023/08/20 03:44:19;;;;;;;7.40;4.32;;;14.50;99.90;;;;;;5083300;28;20134;-68
2023/08/20 03:46:45;;;;;;;19.77;4.60;;;14.60;99.90;;;;;;5104193;28;20039;-68
2023/08/20 03:49:10;;;;;;;6.13;3.70;;;14.60;99.90;;;;;;5086702;28;20570;-68
2023/08/20 03:51:36;;;;;;;9.05;3.63;;;14.60;99.90;;;;;;5119345;27;20105;-68
2023/08/20 03:54:02;;;;;;;5.05;3.78;;;14.60;99.90;;;;;;5119949;27;20036;-68
2023/08/20 03:56:28;;;;;;;5.10;3.92;;;14.50;99.90;;;;;;5103089;28;20028;-68
2023/08/20 03:58:54;;;;;;;6.97;3.50;;;14.50;99.90;;;;;;5104771;28;20042;-68
2023/08/20 04:01:20;;;;;;;6.18;3.80;;;14.50;99.90;;;;;;5105415;28;20414;-68
2023/08/20 04:03:46;;;;;;;5.57;3.58;;;14.50;99.90;;;;;;5104987;28;20036;-68
2023/08/20 04:06:11;;;;;;;10.88;5.05;;;14.40;99.90;;;;;;5084711;28;20039;-68
2023/08/20 04:08:37;;;;;;;9.02;5.05;;;14.70;99.90;;;;;;5120659;27;20517;-68
2023/08/20 04:11:03;;;;;;;4.97;3.17;;;14.40;99.90;;;;;;5104232;28;20042;-68
2023/08/20 04:13:29;;;;;;;5.30;3.28;;;14.40;99.90;;;;;;5122019;27;20035;-68
2023/08/20 04:15:55;;;;;;;6.68;3.50;;;14.40;99.90;;;;;;5068604;28;20031;-68
2023/08/20 04:18:21;;;;;;;8.80;3.17;;;14.40;99.90;;;;;;5102274;28;20374;-68
2023/08/20 04:20:47;;;;;;;6.53;1.80;;;14.40;99.90;;;;;;5104595;28;20446;-68
2023/08/20 04:23:13;;;;;;;3.90;1.80;;;14.40;99.90;;;;;;5119588;28;20110;-68
2023/08/20 04:25:38;;;;;;;4.13;2.47;;;14.30;99.90;;;;;;5102004;28;20036;-68
2023/08/20 04:28:04;;;;;;;6.40;4.75;;;14.30;99.90;;;;;;5087380;28;20047;-68
2023/08/20 04:30:30;;;;;;;10.35;5.60;;;14.30;99.90;;;;;;5103641;28;20061;-68
2023/08/20 04:32:55;;;;;;;10.82;6.22;;;14.30;99.90;;;;;;5085670;28;20044;-68
2023/08/20 04:35:21;;;;;;;10.85;5.07;;;14.20;99.90;;;;;;5122873;28;20805;-68
2023/08/20 04:37:46;;;;;;;8.02;4.72;;;14.20;99.90;;;;;;5107909;28;20042;-68
2023/08/20 04:40:12;;;;;;;6.60;4.30;;;14.20;99.90;;;;;;5084823;28;20112;-68
2023/08/20 04:42:38;;;;;;;4.85;3.40;;;14.10;99.90;;;;;;5120152;28;20045;-68
2023/08/20 04:45:04;;;;;;;11.18;3.70;;;14.20;99.90;;;;;;5083288;28;20057;-68
2023/08/20 04:47:29;;;;;;;8.18;4.32;;;14.20;99.90;;;;;;5080350;28;20047;-68
2023/08/20 04:49:55;;;;;;;6.85;3.70;;;14.20;99.90;;;;;;5101779;28;20036;-68
2023/08/20 04:52:20;;;;;;;7.90;4.00;;;14.20;99.90;;;;;;5106610;28;20040;-68
2023/08/20 04:54:47;;;;;;;7.85;4.68;;;14.30;99.90;;;;;;5085863;28;20131;-68
2023/08/20 04:57:13;;;;;;;8.05;4.22;;;14.40;99.90;;;;;;5086156;28;20047;-68
2023/08/20 04:59:38;;;;;;;11.90;4.22;;;14.40;99.90;;;;;;5105689;28;20044;-68
2023/08/20 05:02:04;;;;;;;5.40;4.13;;;14.40;99.90;;;;;;5090687;28;20071;-68
2023/08/20 05:04:29;;;;;;;9.55;3.35;;;14.40;99.90;;;;;;5107610;28;20631;-68
2023/08/20 05:06:55;;;;;;;7.63;3.90;;;14.50;99.90;;;;;;5088537;28;20046;-68
2023/08/20 05:09:21;;;;;;;11.43;5.40;;;14.60;99.90;;;;;;5089369;28;20151;-68
2023/08/20 05:11:47;;;;;;;10.63;4.82;;;14.60;99.90;;;;;;5111458;28;20036;-68
2023/08/20 05:14:12;;;;;;;7.78;3.35;;;14.80;99.90;;;;;;5090551;28;20043;-68
2023/08/20 05:16:38;;;;;;;6.05;4.13;;;15.00;99.90;;;;;;5107521;28;20028;-68
2023/08/20 05:19:03;;;;;;;8.32;5.03;;;15.30;99.90;;;;;;5107977;28;20027;-68
2023/08/20 05:21:29;;;;;;;10.02;5.57;;;15.70;99.90;;;;;;5089219;28;20046;-68
2023/08/20 05:23:54;;;;;;;8.77;3.10;;;16.50;99.90;;;;;;5107445;28;20032;-68
2023/08/20 05:26:22;;;;;;;4.72;3.05;;;17.60;99.90;;;;;;5106916;28;20120;-68
2023/08/20 05:28:47;;;;;;;3.70;2.38;;;18.80;99.90;;;;;;5089479;28;20040;-68
2023/08/20 05:31:13;;;;;;;7.05;3.00;;;20.00;99.90;;;;;;5088795;28;20496;-68
2023/08/20 05:33:38;;;;;;;5.20;2.75;;;21.20;99.90;;;;;;5107191;28;20034;-68
2023/08/20 05:36:04;;;;;;;7.60;2.65;;;22.30;99.90;;;;;;5121336;27;20697;-67
2023/08/20 05:38:30;;;;;;;4.28;2.47;;;23.20;99.90;;;;;;5088086;28;20043;-67
2023/08/20 05:40:55;;;;;;;7.45;3.45;;;24.20;99.90;;;;;;5087374;28;20039;-68
2023/08/20 05:43:21;;;;;;;3.17;2.00;;;25.10;99.90;;;;;;5089087;28;20043;-67
2023/08/20 05:45:47;;;;;;;5.57;2.65;;;25.70;99.90;;;;;;5105314;28;20104;-67
2023/08/20 05:48:12;;;;;;;4.35;2.20;;;26.50;99.90;;;;;;5105226;28;20035;-67
2023/08/20 05:50:38;;;;;;;3.38;2.00;;;27.30;99.90;;;;;;5123053;27;20075;-67
2023/08/20 05:53:03;;;;;;;5.45;2.80;;;28.00;99.90;;;;;;5104769;28;20455;-67
2023/08/20 05:55:29;;;;;;;5.38;2.75;;;28.60;99.90;;;;;;5086257;28;20040;-67
2023/08/20 05:57:55;;;;;;;7.47;3.13;;;29.30;99.90;;;;;;5086523;28;20043;-67
2023/08/20 06:00:21;;;;;;;5.70;2.03;;;29.90;99.90;;;;;;5089374;28;20058;-67
2023/08/20 06:02:47;;;;;;;5.97;2.63;;;30.40;99.90;;;;;;5089677;28;20031;-67
2023/08/20 06:05:13;;;;;;;3.50;1.90;;;30.80;99.90;;;;;;5083528;28;20048;-67
2023/08/20 06:07:40;;;;;;;7.43;2.50;;;31.30;99.90;;;;;;5085635;28;20070;-67
2023/08/20 06:10:06;;;;;;;4.10;2.05;;;31.70;99.90;;;;;;5120534;27;20126;-67
2023/08/20 06:12:32;;;;;;;3.85;2.17;;;32.00;99.80;;;;;;5104397;28;20043;-67
2023/08/20 06:14:57;;;;;;;5.53;2.22;;;31.70;99.30;;;;;;5123874;27;20043;-67
2023/08/20 06:17:23;;;;;;;6.32;2.55;;;30.90;99.40;;;;;;5105241;28;20032;-67
2023/08/20 06:19:49;;;;;;;4.45;2.50;;;30.10;99.80;;;;;;5100745;28;20117;-67
2023/08/20 06:22:14;;;;;;;4.65;2.58;;;29.20;99.90;;;;;;5088680;28;20048;-67
2023/08/20 06:24:40;;;;;;;4.95;2.33;;;28.70;99.90;;;;;;5102803;28;20077;-67
2023/08/20 06:27:06;;;;;;;6.72;2.85;;;28.20;99.90;;;;;;5103206;28;20035;-67
2023/08/20 06:29:31;;;;;;;6.85;3.10;;;27.90;99.90;;;;;;5102871;27;20032;-67
2023/08/20 06:31:57;;;;;;;5.60;2.80;;;27.60;99.90;;;;;;5103697;27;20126;-67
2023/08/20 06:34:23;;;;;;;12.32;3.40;;;27.40;99.90;;;;;;5100338;27;20516;-67
2023/08/20 06:36:49;;;;;;;10.07;3.45;;;27.10;99.90;;;;;;5105094;28;20031;-67
2023/08/20 06:39:15;;;;;;;6.70;2.67;;;27.10;99.90;;;;;;5090283;28;20552;-67
2023/08/20 06:41:41;;;;;;;8.85;3.88;;;26.90;99.90;;;;;;5086904;28;20150;-67
2023/08/20 06:44:07;;;;;;;8.10;3.00;;;26.90;99.90;;;;;;5085014;28;20154;-67
2023/08/20 06:46:32;;;;;;;4.97;2.10;;;26.90;99.90;;;;;;5118919;27;20114;-67
2023/08/20 06:48:58;;;;;;;4.97;2.25;;;26.90;99.90;;;;;;5104356;28;20093;-67
2023/08/20 06:51:25;;;;;;;6.13;2.55;;;26.90;99.90;;;;;;5104699;28;20123;-67
2023/08/20 06:53:50;;;;;;;7.70;2.65;;;26.90;99.90;;;;;;5086693;28;20165;-67
2023/08/20 06:56:16;;;;;;;7.40;2.88;;;26.90;99.90;;;;;;5104100;28;20110;-67
2023/08/20 06:58:42;;;;;;;6.47;2.63;;;26.90;99.90;;;;;;5106970;28;20063;-67
2023/08/20 07:01:08;;;;;;;4.43;1.77;;;26.80;99.90;;;;;;5119980;27;20039;-67
2023/08/20 07:03:42;;;;;;;7.72;2.65;;;26.80;99.90;;;;;;5121116;27;20118;-67
2023/08/20 07:06:14;;;;;;;18.02;4.05;;;26.80;99.90;;;;;;5104260;28;20039;-68
2023/08/20 07:08:40;;;;;;;7.05;2.50;;;26.60;99.90;;;;;;5086208;28;20051;-68
2023/08/20 07:11:06;;;;;;;7.65;2.72;;;26.50;99.90;;;;;;5082658;28;20074;-68
2023/08/20 07:13:32;;;;;;;7.28;2.78;;;26.40;99.90;;;;;;5104642;28;20035;-68
2023/08/20 07:15:57;;;;;;;8.52;2.58;;;26.50;99.90;;;;;;5089699;28;20496;-68
2023/08/20 07:18:23;;;;;;;7.38;2.60;;;26.50;99.90;;;;;;5105298;28;20098;-68
2023/08/20 07:20:50;;;;;;;7.95;2.88;;;26.40;99.90;;;;;;5105844;28;20065;-68
2023/08/20 07:23:15;;;;;;;7.53;2.65;;;26.20;99.90;;;;;;5104993;28;20497;-68
2023/08/20 07:25:41;;;;;;;10.35;3.20;;;26.20;99.90;;;;;;5086783;28;20039;-68
2023/08/20 07:28:08;;;;;;;7.90;2.67;;;26.00;99.90;;;;;;5102190;28;20040;-68
2023/08/20 07:30:35;;;;;;;10.63;2.97;;;25.90;99.90;;;;;;5106614;28;20420;-68
2023/08/20 07:33:01;;;;;;;9.07;2.65;;;25.80;99.90;;;;;;5107961;28;21453;-68
2023/08/20 07:35:27;;;;;;;8.73;3.42;;;25.70;99.90;;;;;;5085379;28;20066;-68
2023/08/20 07:37:53;;;;;;;8.43;2.65;;;25.70;99.90;;;;;;5104653;28;20435;-68
2023/08/20 07:40:18;;;;;;;8.50;2.65;;;25.50;99.90;;;;;;5107084;28;20028;-68
2023/08/20 07:42:44;;;;;;;7.50;2.30;;;25.50;99.90;;;;;;5103770;28;20458;-68
2023/08/20 07:45:10;;;;;;;10.20;2.58;;;25.40;99.90;;;;;;5088256;28;20042;-68
2023/08/20 07:47:37;;;;;;;6.95;2.30;;;25.30;99.90;;;;;;5085741;28;20355;-68
2023/08/20 07:50:04;;;;;;;8.77;2.70;;;25.30;99.90;;;;;;5087560;28;20142;-68
2023/08/20 07:52:30;;;;;;;9.55;3.15;;;25.40;99.90;;;;;;5083907;28;20096;-68
2023/08/20 07:54:56;;;;;;;9.02;2.38;;;25.40;99.90;;;;;;5120742;27;20089;-68
2023/08/20 07:57:23;;;;;;;7.85;2.22;;;25.50;99.90;;;;;;5104389;28;20031;-68
2023/08/20 07:59:49;;;;;;;8.77;3.13;;;25.60;99.90;;;;;;5103344;28;20050;-68
2023/08/20 08:02:15;;;;;;;12.10;2.70;;;25.50;99.90;;;;;;5088142;28;20154;-68
2023/08/20 08:04:41;;;;;;;8.63;2.95;;;25.60;99.90;;;;;;5087918;28;20138;-68
2023/08/20 08:07:07;;;;;;;7.50;3.22;;;25.80;99.90;;;;;;5105068;28;20059;-68
2023/08/20 08:09:32;;;;;;;5.07;2.38;;;25.90;99.90;;;;;;5104292;28;20470;-68
2023/08/20 08:11:59;;;;;;;10.65;2.60;;;25.90;99.90;;;;;;5103986;28;20047;-68
2023/08/20 08:14:25;;;;;;;10.05;2.90;;;26.00;99.90;;;;;;5085970;28;20072;-68
2023/08/20 08:16:51;;;;;;;8.98;2.67;;;26.20;99.90;;;;;;5119825;27;20047;-68
2023/08/20 08:19:17;;;;;;;9.60;2.90;;;26.40;99.90;;;;;;5086132;28;20051;-68
2023/08/20 08:21:44;;;;;;;8.02;1.92;;;26.40;99.90;;;;;;5103872;28;20481;-68
2023/08/20 08:24:10;;;;;;;9.45;2.30;;;26.60;99.90;;;;;;5103883;28;21425;-68
2023/08/20 08:26:36;;;;;;;8.85;1.88;;;26.70;99.90;;;;;;5102697;28;20045;-68
2023/08/20 08:29:03;;;;;;;7.47;2.38;;;26.80;99.90;;;;;;5106889;28;20077;-68
2023/08/20 08:31:28;;;;;;;8.93;2.08;;;26.80;99.90;;;;;;5103742;28;20072;-68
2023/08/20 08:33:54;;;;;;;6.53;2.05;;;26.80;99.90;;;;;;5104362;28;20071;-68
2023/08/20 08:36:20;;;;;;;11.98;2.15;;;27.00;99.90;;;;;;5107268;28;20039;-68
2023/08/20 08:38:45;;;;;;;6.43;2.17;;;27.00;99.90;;;;;;5121842;27;20123;-68
2023/08/20 08:41:12;;;;;;;7.20;2.13;;;27.00;99.90;;;;;;5122398;27;20046;-68
2023/08/20 08:43:41;;;;;;;5.20;1.52;;;26.70;99.90;;;;;;5108558;28;20084;-68
2023/08/20 08:46:16;;;;;;;5.60;2.05;;;26.70;99.90;;;;;;5086391;28;20035;-68
2023/08/20 08:48:44;;;;;;;6.90;2.40;;;26.60;99.90;;;;;;5107126;28;20045;-68
2023/08/20 08:51:14;;;;;;;6.70;2.95;;;26.60;99.90;;;;;;5110647;28;20063;-68
2023/08/20 08:53:42;;;;;;;10.43;2.30;;;26.60;99.90;;;;;;5092814;28;20542;-68
2023/08/20 08:56:08;;;;;;;7.72;2.13;;;26.60;99.90;;;;;;5106250;28;20023;-68
2023/08/20 08:58:34;;;;;;;7.85;1.80;;;26.50;99.90;;;;;;5106163;28;20039;-68
2023/08/20 09:01:00;;;;;;;6.22;1.55;;;26.70;99.90;;;;;;5106200;28;20034;-68
2023/08/20 09:03:26;;;;;;;6.85;1.80;;;26.80;99.90;;;;;;5123273;27;20481;-68
2023/08/20 09:05:58;;;;;;;4.93;1.48;;;27.00;99.90;;;;;;5088035;28;20047;-68
2023/08/20 09:08:29;;;;;;;6.50;1.60;;;26.90;99.90;;;;;;5088679;28;20086;-68
2023/08/20 09:10:57;;;;;;;5.70;1.45;;;26.80;99.90;;;;;;5105769;28;20039;-68
2023/08/20 09:13:32;;;;;;;8.30;2.15;;;26.80;99.90;;;;;;5108734;28;20119;-68
2023/08/20 09:15:57;;;;;;;;;;;26.90;99.90;;;;;;5087829;28;20046;-68
2023/08/20 09:18:23;;;;;;;8.55;3.05;;;27.00;99.90;;;;;;5108419;28;19924;-68
2023/08/20 09:20:49;;;;;;;6.38;1.55;;;26.90;99.90;;;;;;5107423;28;20034;-68
2023/08/20 09:23:15;;;;;;;5.90;1.50;;;27.00;99.90;;;;;;5109554;28;20535;-68
2023/08/20 09:25:42;;;;;;;5.70;1.73;;;27.00;99.90;;;;;;5109082;28;20043;-68
2023/08/20 09:28:07;;;;;;;7.57;2.53;;;27.00;99.90;;;;;;5089427;28;20043;-68
2023/08/20 09:30:34;;;;;;;7.65;2.30;;;26.90;99.90;;;;;;5125007;27;20044;-68
2023/08/20 09:33:14;;;;;;;6.85;1.63;;;27.00;99.90;;;;;;5107646;28;20528;-68
2023/08/20 09:35:49;;;;;;;8.15;1.25;;;27.00;99.90;;;;;;5105119;28;20031;-68
2023/08/20 09:38:14;;;;;;;5.63;1.58;;;27.00;99.90;;;;;;5105652;28;20358;-68
2023/08/20 09:40:40;;;;;;;5.00;1.27;;;27.20;99.90;;;;;;5088113;28;20045;-68
2023/08/20 09:43:08;;;;;;;5.63;1.40;;;27.50;99.90;;;;;;5090499;28;20040;-68
2023/08/20 09:45:36;;;;;;;5.78;1.63;;;27.60;99.90;;;;;;5088401;28;20040;-68
2023/08/20 09:48:05;;;;;;;4.25;1.25;;;27.80;99.90;;;;;;5104683;28;20050;-68
2023/08/20 09:50:36;;;;;;;4.97;1.27;;;27.80;99.90;;;;;;5086657;28;20044;-68
2023/08/20 09:53:22;;;;;;;4.35;1.27;;;27.80;99.90;;;;;;5109008;28;20035;-68
2023/08/20 09:55:51;;;;;;;8.52;1.23;;;27.80;99.90;;;;;;5106644;28;20078;-68
2023/08/20 09:58:21;;;;;;;5.10;1.30;;;27.90;99.90;;;;;;5104565;28;20043;-68
2023/08/20 10:00:48;;;;;;;4.45;1.20;;;28.00;99.90;;;;;;5105477;28;20050;-69
2023/08/20 10:03:14;;;;;;;3.50;1.13;;;28.10;99.90;;;;;;5088545;28;20126;-68
2023/08/20 10:05:40;;;;;;;5.28;1.02;;;28.20;99.90;;;;;;5107981;28;20123;-68
2023/08/20 10:08:07;;;;;;;5.03;1.10;;;28.00;99.90;;;;;;5104876;28;20032;-69
2023/08/20 10:10:34;;;;;;;7.03;1.58;;;28.00;99.90;;;;;;5107801;28;20024;-68
2023/08/20 10:13:00;;;;;;;4.50;1.42;;;28.00;99.90;;;;;;5109288;28;20110;-68
2023/08/20 10:15:28;;;;;;;4.18;1.23;;;28.10;99.90;;;;;;5105152;28;20088;-68
2023/08/20 10:17:53;;;;;;;6.55;1.58;;;28.10;99.90;;;;;;5104569;28;20061;-66
2023/08/20 10:20:19;;;;;;;5.43;1.60;;;28.30;99.90;;;;;;5084918;28;20039;-68
2023/08/20 10:22:46;;;;;;;5.50;1.45;;;28.30;99.90;;;;;;5105994;28;20090;-68
2023/08/20 10:25:22;;;;;;;6.30;1.58;;;28.30;99.90;;;;;;5103360;28;20059;-68
2023/08/20 10:27:47;;;;;;;6.32;1.30;;;28.20;99.40;;;;;;5085814;28;20389;-68
2023/08/20 10:30:20;;;;;;;5.55;1.20;;;28.30;99.90;;;;;;5088363;28;20044;-68
2023/08/20 10:32:52;;;;;;;5.18;1.25;;;28.20;98.50;;;;;;5090338;28;20040;-68
2023/08/20 10:35:39;;;;;;;3.28;0.90;;;28.20;99.10;;;;;;5104947;28;20447;-68
2023/08/20 10:38:11;;;;;;;4.53;0.82;;;28.00;98.40;;;;;;5102395;28;20722;-67
2023/08/20 10:40:58;;;;;;;5.53;1.20;;;28.00;98.60;;;;;;5104745;28;20110;-68
2023/08/20 10:43:30;;;;;;;4.15;0.95;;;28.10;99.00;;;;;;5103971;28;20067;-68
2023/08/20 10:46:23;;;;;;;17.25;1.10;;;28.10;99.20;;;;;;5084875;28;20046;-68
2023/08/20 10:48:59;;;;;;;8.95;1.48;;;28.20;99.60;;;;;;5104282;28;20044;-68
2023/08/20 10:51:33;;;;;;;4.72;1.00;;;28.10;98.40;;;;;;5103580;28;20459;-68
2023/08/20 10:54:04;;;;;;;4.20;0.90;;;28.20;99.10;;;;;;5082963;28;20046;-68
2023/08/20 10:56:52;;;;;;;3.67;0.63;;;28.60;99.40;;;;;;5105815;28;20035;-68
2023/08/20 10:59:27;;;;;;;4.28;0.90;;;28.90;98.20;;;;;;5121532;27;20048;-68
2023/08/20 11:01:57;;;;;;;5.00;0.93;;;29.30;98.20;;;;;;5121159;27;20122;-68
2023/08/20 11:04:28;;;;;;;4.28;1.10;;;29.30;98.30;;;;;;5103550;28;20081;-68
2023/08/20 11:06:56;;;;;;;7.07;1.33;;;29.40;98.10;;;;;;5119415;27;20071;-68
2023/08/20 11:09:23;;;;;;;3.63;1.13;;;29.20;97.60;;;;;;5104680;28;20393;-68
2023/08/20 11:11:48;;;;;;;4.30;0.88;;;29.00;98.00;;;;;;5104155;28;20044;-68
2023/08/20 11:14:15;;;;;;;4.00;1.17;;;29.00;98.40;;;;;;5103886;28;20031;-68
2023/08/20 11:16:44;;;;;;;4.40;1.13;;;28.90;98.30;;;;;;5104857;28;20067;-67
2023/08/20 11:19:10;;;;;;;4.75;1.20;;;28.90;98.50;;;;;;5107550;28;20112;-67
2023/08/20 11:21:37;;;;;;;5.80;1.15;;;28.80;98.90;;;;;;5105256;28;20081;-67
2023/08/20 11:24:03;;;;;;;4.78;1.00;;;28.70;98.20;;;;;;5087549;28;20044;-68
2023/08/20 11:26:29;;;;;;;3.50;1.25;;;28.60;97.70;;;;;;5086286;28;20039;-68
2023/08/20 11:28:55;;;;;;;4.63;1.70;;;28.70;98.70;;;;;;5104109;28;20066;-68
2023/08/20 11:31:21;;;;;;;4.25;1.08;;;28.70;99.60;;;;;;5105812;28;20562;-67
2023/08/20 11:33:47;;;;;;;3.70;0.75;;;28.70;98.90;;;;;;5104208;28;20038;-68
2023/08/20 11:36:16;;;;;;;6.65;1.00;;;28.80;98.60;;;;;;5087414;28;20384;-68
2023/08/20 11:38:42;;;;;;;5.05;0.70;;;28.70;98.30;;;;;;5085154;28;20496;-68
2023/08/20 11:41:07;;;;;;;5.78;1.00;;;28.60;98.10;;;;;;5104228;28;20032;-68
2023/08/20 11:43:33;;;;;;;4.45;0.80;;;28.50;98.80;;;;;;5083905;28;20039;-68
2023/08/20 11:45:59;;;;;;;3.83;0.93;;;28.40;99.10;;;;;;5103243;28;20039;-68
2023/08/20 11:48:25;;;;;;;3.28;0.77;;;28.50;99.20;;;;;;5086043;28;20044;-68
2023/08/20 11:50:51;;;;;;;1.38;0.50;;;28.50;97.90;;;;;;5104657;28;20145;-68
2023/08/20 11:53:23;;;;;;;2.63;0.55;;;28.40;97.50;;;;;;5105660;28;20457;-67
2023/08/20 11:55:49;;;;;;;4.00;0.55;;;28.30;97.10;;;;;;5105106;28;20405;-68
2023/08/20 11:58:14;;;;;;;3.38;0.80;;;28.30;96.90;;;;;;5104924;28;20036;-68
2023/08/20 12:00:40;;;;;;;4.45;0.98;;;28.30;97.20;;;;;;5103271;28;20089;-68
2023/08/20 12:03:09;;;;;;;2.97;0.90;;;28.20;97.10;;;;;;5106824;28;20031;-68
2023/08/20 12:05:34;;;;;;;2.30;0.63;;;28.30;97.20;;;;;;5085109;28;20039;-68
2023/08/20 12:08:02;;;;;;;4.20;0.93;;;28.30;97.20;;;;;;5084557;28;20052;-68
2023/08/20 12:10:29;;;;;;;2.35;0.63;;;28.20;97.10;;;;;;5104857;28;20490;-68
2023/08/20 12:12:55;;;;;;;5.18;0.85;;;28.20;97.80;;;;;;5086024;28;20142;-68
2023/08/20 12:15:21;;;;;;;5.43;1.17;;;28.30;98.00;;;;;;5086151;28;20075;-68
2023/08/20 12:18:01;;;;;;;2.53;0.60;;;28.20;97.80;;;;;;5099919;28;20039;-68
2023/08/20 12:20:28;;;;;;;3.15;1.00;;;28.30;96.50;;;;;;5097657;28;20540;-67
2023/08/20 12:22:54;;;;;;;6.90;0.77;;;28.20;97.00;;;;;;5102771;28;20127;-68
2023/08/20 12:25:20;;;;;;;2.92;0.90;;;28.20;97.00;;;;;;5098340;28;20193;-67
2023/08/20 12:27:45;;;;;;;3.22;0.80;;;28.30;97.70;;;;;;5080454;28;20054;-68
2023/08/20 12:30:12;;;;;;;4.85;0.75;;;28.20;97.20;;;;;;5082784;28;20067;-68
2023/08/20 12:32:37;;;;;;;3.97;0.88;;;28.10;97.40;;;;;;5098392;28;20032;-68
2023/08/20 12:35:03;;;;;;;3.25;0.75;;;27.90;97.20;;;;;;5084777;28;20042;-67
2023/08/20 12:37:29;;;;;;;3.90;0.82;;;28.00;97.60;;;;;;5083734;28;20046;-68
2023/08/20 12:39:55;;;;;;;4.72;0.88;;;28.10;97.70;;;;;;5102426;28;20375;-67
2023/08/20 12:42:20;;;;;;;4.90;0.90;;;28.10;97.70;;;;;;5104600;28;20036;-68
2023/08/20 12:44:46;;;;;;;3.65;0.80;;;28.20;97.90;;;;;;5120213;28;20073;-68